Stuart, IA

1:21 AM CST on November 23, 2014 (GMT -0600)
S.W. of Earlham | Change Station
CLOSE
Current Station
Personal Weather Station
Location: Earlham, IA
Elevation: 1145 ft
Nearby Weather Stations

Elev 1145 ft 41.46 °N, 94.17 °W | Updated 14 seconds ago

Overcast
Overcast
52.2 °F
Feels Like 52.2 °F
N
8.9
Wind Variable Wind from North
Gusts 12.3 mph

Today
High -- | Low -- °F
--% Chance of Precip.
Yesterday
High -- | Low -- °F
Precip. -- in
7:15 AM 4:51 PM
New Moon, 1% visible
Pressure 29.58 in
Visibility 5.0 miles
Clouds Overcast 700 ft
Dew Point 50 °F
Humidity 91%
Rainfall 0.00 in
Snow Depth Not available.
UV 0 out of 12
Pollen .10 out of 12
Air Quality Not available.
Flu Activity Not available.
METAR KPRO 230655Z AUTO 19013KT 5SM BR OVC007 11/10 A2958 RMK AO2 T01100103

More Conditions Fewer Conditions

Pressure 29.58 in
Visibility 5.0 miles
Clouds Overcast 700 ft
Dew Point 50 °F
Humidity 91%
Rainfall 0.00 in
Snow Depth Not available.
UV 0 out of 12
Pollen .10 out of 12
Air Quality Not available.
Flu Activity Not available.
METAR KPRO 230655Z AUTO 19013KT 5SM BR OVC007 11/10 A2958 RMK AO2 T01100103

More Conditions Fewer Conditions

10-Day Weather Forecast

Almanac

Astronomy

Nov. 23, 2014 Rise Set
Actual Time
Civil Twilight
Nautical Twilight
Astronomical Twilight
Moon
Length of Visible Light
Length of Day
Tomorrow will be .
, % of the Moon is Illuminated

Today's Extremes

State Highs State Lows

Community

WunderPhotos

Upload Photos

1,773,024 photos uploaded!

WunderBlogs® & News

Nearby

Air Quality

  Air Quality AQ Index Pollutant
Not available.

Snow Depth

Station Depth Elevation

Earthquake Activity

City Distance Mag. Time & Date
Minimum magnitude displayed is 2.5.

Coastal Water Temperatures

Place Temperature

Nearby Weather Stations